createdAt,value
2023-04-27T00:02:15.117Z,55.91
2023-04-27T00:04:43.333Z,55.83
2023-04-27T00:07:11.952Z,56.59
2023-04-27T00:09:39.188Z,56.34
2023-04-27T00:12:07.178Z,56.19
2023-04-27T00:14:34.708Z,56.55
2023-04-27T00:17:01.778Z,56.78
2023-04-27T00:19:30.751Z,57.05
2023-04-27T00:21:58.162Z,57.70
2023-04-27T00:24:25.220Z,57.62
2023-04-27T00:26:52.184Z,57.55
2023-04-27T00:29:19.215Z,57.88
2023-04-27T00:31:46.506Z,58.08
2023-04-27T00:34:13.540Z,56.18
2023-04-27T00:36:40.833Z,55.56
2023-04-27T00:39:07.760Z,55.37
2023-04-27T00:41:38.391Z,55.29
2023-04-27T00:44:05.639Z,55.47
2023-04-27T00:46:33.307Z,55.80
2023-04-27T00:49:01.122Z,56.05
2023-04-27T00:51:30.445Z,56.21
2023-04-27T00:53:58.125Z,56.43
2023-04-27T00:56:25.100Z,56.77
2023-04-27T00:58:52.211Z,56.69
2023-04-27T01:01:20.750Z,56.85
2023-04-27T01:03:48.629Z,57.12
2023-04-27T01:06:15.902Z,57.06
2023-04-27T01:08:44.192Z,57.18
2023-04-27T01:11:11.440Z,57.08
2023-04-27T01:13:39.604Z,57.24
2023-04-27T01:16:06.756Z,57.62
2023-04-27T01:18:35.126Z,57.30
2023-04-27T01:21:02.459Z,55.67
2023-04-27T01:23:29.992Z,54.45
2023-04-27T01:25:56.904Z,54.41
2023-04-27T01:28:24.028Z,55.07
2023-04-27T01:30:51.469Z,54.99
2023-04-27T01:33:18.845Z,55.11
2023-04-27T01:35:48.560Z,55.36
2023-04-27T01:38:16.438Z,55.32
2023-04-27T01:40:44.176Z,55.44
2023-04-27T01:43:11.543Z,55.78
2023-04-27T01:45:38.536Z,55.96
2023-04-27T01:48:05.780Z,56.12
2023-04-27T01:50:33.238Z,56.31
2023-04-27T01:53:00.889Z,56.49
2023-04-27T01:55:29.462Z,56.31
2023-04-27T01:57:56.612Z,56.86
2023-04-27T02:00:23.770Z,57.04
2023-04-27T02:02:53.838Z,57.43
2023-04-27T02:05:26.025Z,57.70
2023-04-27T02:07:53.470Z,57.31
2023-04-27T02:10:23.501Z,55.30
2023-04-27T02:12:55.260Z,54.43
2023-04-27T02:15:22.280Z,53.75
2023-04-27T02:17:49.393Z,54.73
2023-04-27T02:20:16.565Z,54.98
2023-04-27T02:22:44.503Z,55.11
2023-04-27T02:25:12.309Z,55.74
2023-04-27T02:27:40.276Z,56.08
2023-04-27T02:30:09.093Z,56.22
2023-04-27T02:32:36.786Z,56.78
2023-04-27T02:35:05.452Z,56.76
2023-04-27T02:37:32.512Z,56.90
2023-04-27T02:39:59.841Z,57.18
2023-04-27T02:42:27.466Z,57.45
2023-04-27T02:44:54.551Z,57.69
2023-04-27T02:47:21.503Z,57.89
2023-04-27T02:49:48.552Z,57.57
2023-04-27T02:52:15.805Z,56.36
2023-04-27T02:54:42.933Z,54.90
2023-04-27T02:57:09.915Z,54.91
2023-04-27T02:59:37.027Z,54.89
2023-04-27T03:02:04.072Z,55.52
2023-04-27T03:04:31.785Z,55.67
2023-04-27T03:06:58.882Z,56.13
2023-04-27T03:09:25.945Z,56.05
2023-04-27T03:11:53.395Z,56.86
2023-04-27T03:14:21.063Z,57.48
2023-04-27T03:16:48.219Z,57.24
2023-04-27T03:19:15.781Z,57.64
2023-04-27T03:21:42.937Z,58.35
2023-04-27T03:24:10.013Z,58.01
2023-04-27T03:28:28.073Z,56.32
2023-04-27T03:30:55.870Z,55.29
2023-04-27T03:33:23.055Z,55.28
2023-04-27T03:35:57.480Z,55.61
2023-04-27T03:38:25.511Z,55.99
2023-04-27T03:40:53.562Z,56.46
2023-04-27T03:43:21.142Z,56.86
2023-04-27T03:45:48.342Z,56.99
2023-04-27T03:48:16.457Z,57.62
2023-04-27T03:50:47.301Z,57.49
2023-04-27T03:53:16.170Z,57.75
2023-04-27T03:55:44.442Z,58.18
2023-04-27T03:58:11.714Z,57.85
2023-04-27T04:00:46.952Z,55.94
2023-04-27T04:03:14.503Z,55.47
2023-04-27T04:05:41.705Z,55.78
2023-04-27T04:08:09.363Z,55.62
2023-04-27T04:10:36.783Z,55.62
2023-04-27T04:13:03.862Z,55.89
2023-04-27T04:15:31.076Z,56.23
2023-04-27T04:17:58.115Z,56.72
2023-04-27T04:20:25.392Z,56.69
2023-04-27T04:22:52.401Z,58.13
2023-04-27T04:25:20.803Z,57.89
2023-04-27T04:27:48.826Z,58.30
2023-04-27T04:30:16.621Z,58.46
2023-04-27T04:32:45.185Z,57.62
2023-04-27T04:35:12.518Z,56.54
2023-04-27T04:37:39.940Z,56.54
2023-04-27T04:40:11.235Z,55.44
2023-04-27T04:42:38.575Z,55.11
2023-04-27T04:45:07.452Z,55.08
2023-04-27T04:47:35.542Z,54.12
2023-04-27T04:50:02.598Z,53.37
2023-04-27T04:52:31.097Z,53.77
2023-04-27T04:54:58.039Z,54.13
2023-04-27T04:57:25.075Z,53.76
2023-04-27T04:59:52.611Z,53.82
2023-04-27T05:02:19.626Z,53.78
2023-04-27T05:04:47.120Z,53.23
2023-04-27T05:07:15.282Z,53.25
2023-04-27T05:09:43.065Z,54.02
2023-04-27T05:12:10.265Z,53.85
2023-04-27T05:14:37.621Z,53.69
2023-04-27T05:17:04.630Z,54.01
2023-04-27T05:19:32.284Z,53.71
2023-04-27T05:21:59.284Z,53.82
2023-04-27T05:24:26.537Z,54.02
2023-04-27T05:26:54.004Z,53.94
2023-04-27T05:29:22.081Z,53.22
2023-04-27T05:31:49.191Z,53.36
2023-04-27T05:34:16.289Z,53.26
2023-04-27T05:36:43.999Z,53.24
2023-04-27T05:39:11.072Z,53.80
2023-04-27T05:41:38.132Z,52.14
2023-04-27T05:44:05.109Z,51.71
2023-04-27T05:46:32.232Z,51.45
2023-04-27T05:48:59.494Z,51.30
2023-04-27T05:51:27.130Z,50.59
2023-04-27T05:53:55.448Z,51.74
2023-04-27T05:56:22.759Z,50.96
2023-04-27T05:58:49.657Z,51.21
2023-04-27T06:01:16.715Z,51.42
2023-04-27T06:03:43.928Z,51.09
2023-04-27T06:06:11.293Z,50.81
2023-04-27T06:08:39.545Z,50.95
2023-04-27T06:11:07.681Z,51.73
2023-04-27T06:13:34.633Z,51.17
2023-04-27T06:16:01.833Z,51.14
2023-04-27T06:18:29.034Z,51.68
2023-04-27T06:21:02.366Z,51.71
2023-04-27T06:23:29.741Z,51.46
2023-04-27T06:25:56.841Z,51.91
2023-04-27T06:28:23.789Z,51.96
2023-04-27T06:30:50.831Z,51.58
2023-04-27T06:33:17.918Z,52.23
2023-04-27T06:35:47.240Z,52.44
2023-04-27T06:38:14.695Z,51.60
2023-04-27T06:40:41.892Z,51.25
2023-04-27T06:43:09.021Z,50.81
2023-04-27T06:45:36.252Z,51.07
2023-04-27T06:48:03.490Z,50.53
2023-04-27T06:50:31.008Z,50.64
2023-04-27T06:52:58.102Z,50.48
2023-04-27T06:55:25.364Z,50.86
2023-04-27T06:57:52.461Z,51.62
2023-04-27T07:00:20.202Z,51.77
2023-04-27T07:02:47.492Z,51.08
2023-04-27T07:05:14.479Z,51.15
2023-04-27T07:07:41.560Z,51.18
2023-04-27T07:10:09.239Z,50.81
2023-04-27T07:12:37.681Z,50.67
2023-04-27T07:15:07.427Z,50.68
2023-04-27T07:17:35.015Z,51.09
2023-04-27T07:20:02.126Z,51.44
2023-04-27T07:22:29.278Z,51.11
2023-04-27T07:24:56.243Z,51.03
2023-04-27T07:27:23.170Z,51.19
2023-04-27T07:29:50.176Z,51.65
2023-04-27T07:32:17.171Z,52.39
2023-04-27T07:34:52.879Z,52.70
2023-04-27T07:37:22.190Z,53.06
2023-04-27T07:39:50.440Z,53.82
2023-04-27T07:42:18.539Z,53.97
2023-04-27T07:44:45.506Z,53.68
2023-04-27T07:47:14.093Z,54.21
2023-04-27T07:49:41.273Z,54.65
2023-04-27T07:52:08.531Z,54.79
2023-04-27T07:54:36.589Z,53.74
2023-04-27T07:57:11.655Z,53.38
2023-04-27T07:59:39.537Z,53.63
2023-04-27T08:02:17.897Z,53.27
2023-04-27T08:04:46.859Z,52.82
2023-04-27T08:07:18.715Z,52.22
2023-04-27T08:09:46.647Z,52.56
2023-04-27T08:12:13.564Z,52.78
2023-04-27T08:14:40.527Z,50.57
2023-04-27T08:17:07.624Z,47.16
2023-04-27T08:19:35.200Z,46.37
2023-04-27T08:22:02.034Z,42.62
2023-04-27T08:24:29.398Z,41.53
2023-04-27T08:26:56.359Z,41.00
2023-04-27T08:29:27.781Z,39.46
2023-04-27T08:31:57.945Z,40.13
2023-04-27T08:34:24.929Z,38.33
2023-04-27T08:36:51.924Z,37.96
2023-04-27T08:39:19.163Z,38.98
2023-04-27T08:41:46.497Z,37.71
2023-04-27T08:44:13.412Z,39.15
2023-04-27T08:46:41.418Z,38.67
2023-04-27T08:49:08.589Z,38.98
2023-04-27T08:51:35.994Z,39.01
2023-04-27T08:54:02.946Z,38.41
2023-04-27T08:56:30.093Z,36.88
2023-04-27T08:58:57.694Z,37.66
2023-04-27T09:01:25.501Z,36.16
2023-04-27T09:03:59.831Z,35.93
2023-04-27T09:06:33.977Z,36.29
2023-04-27T09:09:01.736Z,36.47
2023-04-27T09:11:34.003Z,35.82
2023-04-27T09:14:02.842Z,36.72
2023-04-27T09:16:30.689Z,37.49
2023-04-27T09:18:58.488Z,38.04
2023-04-27T09:21:29.594Z,38.72
2023-04-27T09:23:56.849Z,38.78
2023-04-27T09:26:25.264Z,39.44
2023-04-27T09:28:53.953Z,39.04
2023-04-27T09:33:29.827Z,39.57
2023-04-27T09:35:59.653Z,38.89
2023-04-27T09:38:26.743Z,39.06
2023-04-27T09:40:54.369Z,39.78
2023-04-27T09:43:22.068Z,38.12
2023-04-27T09:45:50.383Z,37.89
2023-04-27T09:48:17.491Z,36.67
2023-04-27T09:50:45.331Z,38.26
2023-04-27T09:53:15.549Z,35.02
2023-04-27T09:56:01.377Z,33.35
2023-04-27T09:58:36.999Z,31.88
2023-04-27T10:01:13.209Z,29.96
2023-04-27T10:03:51.910Z,29.84
2023-04-27T10:06:34.748Z,31.22
2023-04-27T10:09:06.586Z,30.89
2023-04-27T10:11:41.000Z,30.64
2023-04-27T10:14:09.422Z,31.22
2023-04-27T10:16:53.128Z,32.13
2023-04-27T10:19:21.134Z,32.10
2023-04-27T10:22:08.558Z,31.52
2023-04-27T10:24:37.124Z,31.03
2023-04-27T10:27:05.908Z,31.76
2023-04-27T10:29:41.849Z,31.40
2023-04-27T10:32:11.073Z,30.94
2023-04-27T10:34:38.607Z,29.47
2023-04-27T10:37:07.267Z,30.38
2023-04-27T10:39:47.035Z,28.71
2023-04-27T10:42:15.308Z,28.40
2023-04-27T10:44:42.351Z,28.04
2023-04-27T10:47:16.138Z,28.26
2023-04-27T10:49:43.377Z,28.88
2023-04-27T10:52:10.329Z,29.44
2023-04-27T10:54:39.495Z,28.65
2023-04-27T10:57:07.865Z,27.63
2023-04-27T10:59:35.910Z,26.44
2023-04-27T11:02:03.205Z,26.15
2023-04-27T11:04:40.379Z,26.10
2023-04-27T11:07:11.303Z,27.51
2023-04-27T11:09:38.535Z,26.29
2023-04-27T11:12:08.812Z,28.05
2023-04-27T11:14:37.018Z,27.81
2023-04-27T11:17:07.277Z,28.77
2023-04-27T11:19:44.465Z,26.81
2023-04-27T11:22:11.703Z,27.18
2023-04-27T11:24:47.897Z,26.94
2023-04-27T11:27:14.847Z,26.27
2023-04-27T11:29:42.567Z,24.55
2023-04-27T11:32:18.109Z,24.98
2023-04-27T11:34:49.904Z,26.89
2023-04-27T11:37:21.959Z,26.68
2023-04-27T11:39:48.866Z,27.91
2023-04-27T11:42:19.550Z,27.72
2023-04-27T11:44:57.295Z,27.01
2023-04-27T11:47:28.850Z,26.94
2023-04-27T11:49:57.348Z,27.25
2023-04-27T11:52:33.572Z,27.30
2023-04-27T11:55:01.144Z,26.06
2023-04-27T11:57:29.867Z,26.52
2023-04-27T11:59:57.915Z,26.75
2023-04-27T12:02:24.915Z,25.70
2023-04-27T12:04:52.375Z,26.57
2023-04-27T12:07:19.808Z,26.10
2023-04-27T12:09:46.945Z,26.75
2023-04-27T12:12:14.680Z,27.21
2023-04-27T12:14:42.126Z,27.06
2023-04-27T12:17:09.434Z,27.67
2023-04-27T12:19:37.381Z,27.53
2023-04-27T12:22:04.764Z,27.28
2023-04-27T12:24:32.397Z,26.47
2023-04-27T12:26:59.844Z,25.22
2023-04-27T12:29:28.373Z,25.87
2023-04-27T12:31:55.304Z,26.36
2023-04-27T12:34:22.224Z,26.95
2023-04-27T12:36:49.165Z,25.75
2023-04-27T12:39:20.467Z,24.97
2023-04-27T12:41:47.815Z,24.25
2023-04-27T12:44:15.072Z,25.20
2023-04-27T12:46:42.816Z,26.20
2023-04-27T12:49:10.038Z,25.91
2023-04-27T12:51:37.481Z,26.01
2023-04-27T12:54:04.966Z,27.10
2023-04-27T12:56:33.423Z,26.72
2023-04-27T12:59:00.442Z,26.60
2023-04-27T13:01:31.729Z,26.89
2023-04-27T13:04:00.041Z,25.05
2023-04-27T13:06:27.786Z,24.60
2023-04-27T13:08:54.730Z,24.51
2023-04-27T13:11:21.694Z,23.71
2023-04-27T13:13:48.968Z,23.91
2023-04-27T13:16:16.691Z,24.77
2023-04-27T13:18:48.415Z,25.70
2023-04-27T13:21:15.568Z,25.17
2023-04-27T13:23:42.647Z,25.12
2023-04-27T13:26:09.635Z,25.91
2023-04-27T13:28:36.712Z,26.60
2023-04-27T13:31:04.339Z,27.61
2023-04-27T13:33:32.817Z,27.69
2023-04-27T13:36:02.425Z,27.99
2023-04-27T13:38:29.638Z,28.51
2023-04-27T13:40:56.610Z,29.06
2023-04-27T13:43:23.581Z,28.80
2023-04-27T13:45:52.687Z,28.33
2023-04-27T13:48:19.663Z,29.30
2023-04-27T13:50:46.838Z,29.24
2023-04-27T13:53:16.153Z,29.12
2023-04-27T13:55:44.039Z,28.72
2023-04-27T13:58:11.995Z,27.76
2023-04-27T14:00:39.285Z,28.38
2023-04-27T14:03:08.995Z,28.14
2023-04-27T14:05:36.599Z,28.95
2023-04-27T14:08:03.789Z,28.15
2023-04-27T14:10:31.133Z,28.22
2023-04-27T14:12:58.087Z,28.87
2023-04-27T14:15:24.958Z,28.05
2023-04-27T14:17:51.930Z,28.11
2023-04-27T14:20:18.872Z,28.56
2023-04-27T14:22:46.571Z,29.30
2023-04-27T14:25:13.576Z,29.47
2023-04-27T14:27:40.641Z,29.29
2023-04-27T14:30:08.537Z,28.73
2023-04-27T14:32:36.671Z,28.69
2023-04-27T14:35:04.129Z,29.05
2023-04-27T14:37:31.273Z,28.80
2023-04-27T14:39:58.279Z,29.92
2023-04-27T14:42:25.418Z,30.12
2023-04-27T14:44:52.397Z,30.11
2023-04-27T14:47:19.723Z,29.40
2023-04-27T14:49:46.717Z,29.49
2023-04-27T14:52:13.852Z,29.77
2023-04-27T14:54:41.703Z,30.23
2023-04-27T14:57:08.871Z,30.34
2023-04-27T14:59:35.827Z,31.12
2023-04-27T15:02:03.820Z,30.74
2023-04-27T15:04:31.160Z,31.12
2023-04-27T15:06:58.243Z,31.00
2023-04-27T15:09:25.269Z,30.61
2023-04-27T15:11:52.571Z,30.41
2023-04-27T15:14:20.656Z,30.81
2023-04-27T15:16:47.632Z,30.93
2023-04-27T15:19:15.557Z,32.26
2023-04-27T15:21:42.710Z,32.40
2023-04-27T15:24:09.688Z,32.23
2023-04-27T15:26:36.597Z,31.86
2023-04-27T15:29:04.575Z,31.89
2023-04-27T15:31:31.963Z,31.30
2023-04-27T15:33:58.993Z,31.75
2023-04-27T15:36:28.448Z,32.60
2023-04-27T15:38:55.444Z,32.40
2023-04-27T15:41:22.515Z,32.71
2023-04-27T15:43:50.841Z,32.14
2023-04-27T15:46:19.045Z,31.87
2023-04-27T15:48:46.008Z,31.52
2023-04-27T15:51:12.956Z,32.52
2023-04-27T15:53:39.875Z,32.49
2023-04-27T15:56:07.139Z,32.68
2023-04-27T15:58:34.269Z,33.02
2023-04-27T16:01:01.375Z,33.73
2023-04-27T16:03:28.655Z,33.78
2023-04-27T16:05:56.164Z,34.05
2023-04-27T16:08:23.155Z,34.48
2023-04-27T16:10:50.559Z,34.50
2023-04-27T16:13:17.503Z,34.79
2023-04-27T16:15:44.983Z,34.26
2023-04-27T16:18:11.968Z,34.32
2023-04-27T16:20:38.980Z,34.42
2023-04-27T16:23:05.944Z,34.53
2023-04-27T16:25:33.197Z,34.81
2023-04-27T16:28:00.931Z,34.49
2023-04-27T16:30:27.891Z,34.77
2023-04-27T16:32:55.790Z,34.27
2023-04-27T16:35:23.223Z,35.18
2023-04-27T16:37:50.559Z,35.34
2023-04-27T16:40:17.540Z,35.32
2023-04-27T16:42:44.467Z,35.58
2023-04-27T16:45:11.622Z,36.06
2023-04-27T16:47:38.971Z,36.11
2023-04-27T16:50:06.650Z,36.56
2023-04-27T16:52:33.866Z,36.39
2023-04-27T16:55:00.862Z,36.67
2023-04-27T16:57:27.760Z,37.14
2023-04-27T16:59:54.734Z,37.34
2023-04-27T17:02:25.212Z,37.66
2023-04-27T17:04:54.183Z,38.53
2023-04-27T17:07:21.464Z,38.48
2023-04-27T17:09:48.675Z,38.87
2023-04-27T17:12:16.733Z,38.85
2023-04-27T17:14:43.792Z,39.02
2023-04-27T17:17:11.170Z,39.18
2023-04-27T17:19:39.074Z,39.37
2023-04-27T17:22:08.181Z,39.62
2023-04-27T17:24:35.139Z,39.50
2023-04-27T17:27:04.148Z,39.93
2023-04-27T17:29:31.862Z,40.01
2023-04-27T17:31:58.973Z,39.69
2023-04-27T17:34:26.032Z,40.05
2023-04-27T17:36:53.023Z,39.90
2023-04-27T17:39:22.637Z,40.26
2023-04-27T17:41:49.630Z,40.32
2023-04-27T17:44:16.670Z,40.24
2023-04-27T17:46:50.443Z,40.27
2023-04-27T17:49:18.151Z,40.35
2023-04-27T17:51:45.905Z,40.88
2023-04-27T17:54:13.011Z,40.93
2023-04-27T17:56:40.218Z,41.22
2023-04-27T17:59:10.156Z,41.14
2023-04-27T18:01:37.901Z,41.30
2023-04-27T18:04:07.203Z,41.71
2023-04-27T18:06:35.833Z,42.53
2023-04-27T18:09:03.393Z,43.16
2023-04-27T18:11:30.521Z,43.49
2023-04-27T18:14:00.265Z,43.66
2023-04-27T18:16:27.338Z,43.30
2023-04-27T18:18:54.335Z,43.84
2023-04-27T18:21:21.241Z,44.08
2023-04-27T18:23:48.316Z,44.77
2023-04-27T18:26:15.294Z,44.85
2023-04-27T18:28:42.551Z,44.31
2023-04-27T18:31:16.612Z,44.67
2023-04-27T18:33:44.463Z,44.86
2023-04-27T18:36:11.476Z,45.49
2023-04-27T18:38:38.410Z,45.02
2023-04-27T18:41:05.692Z,45.52
2023-04-27T18:43:35.035Z,45.19
2023-04-27T18:46:03.087Z,46.22
2023-04-27T18:48:30.179Z,45.99
2023-04-27T18:50:57.371Z,45.77
2023-04-27T18:53:24.401Z,46.56
2023-04-27T18:55:52.490Z,47.40
2023-04-27T18:58:19.896Z,47.93
2023-04-27T19:00:46.804Z,48.28
2023-04-27T19:03:13.921Z,48.82
2023-04-27T19:05:43.193Z,48.82
2023-04-27T19:08:10.506Z,49.86
2023-04-27T19:10:38.169Z,49.14
2023-04-27T19:13:05.079Z,48.38
2023-04-27T19:15:32.042Z,48.45
2023-04-27T19:18:06.878Z,48.70
2023-04-27T19:20:37.462Z,48.96
2023-04-27T19:23:05.510Z,48.97
2023-04-27T19:25:32.561Z,49.00
2023-04-27T19:28:00.619Z,49.55
2023-04-27T19:30:27.764Z,49.75
2023-04-27T19:32:54.868Z,49.76
2023-04-27T19:35:23.889Z,50.33
2023-04-27T19:37:51.262Z,50.53
2023-04-27T19:40:18.412Z,50.69
2023-04-27T19:42:45.695Z,50.31
2023-04-27T19:45:12.797Z,50.36
2023-04-27T19:47:40.155Z,51.07
2023-04-27T19:50:07.469Z,51.04
2023-04-27T19:52:34.756Z,51.10
2023-04-27T19:55:01.690Z,51.95
2023-04-27T19:57:28.942Z,51.93
2023-04-27T19:59:56.397Z,51.98
2023-04-27T20:02:23.477Z,51.14
2023-04-27T20:04:50.783Z,51.99
2023-04-27T20:07:18.104Z,51.58
2023-04-27T20:09:45.039Z,51.46
2023-04-27T20:12:28.944Z,51.75
2023-04-27T20:14:59.275Z,51.88
2023-04-27T20:17:26.352Z,51.83
2023-04-27T20:19:57.170Z,52.01
2023-04-27T20:22:24.157Z,52.70
2023-04-27T20:24:51.128Z,53.25
2023-04-27T20:27:18.155Z,53.55
2023-04-27T20:29:47.211Z,53.72
2023-04-27T20:32:14.151Z,54.66
2023-04-27T20:34:41.207Z,54.72
2023-04-27T20:37:09.649Z,55.30
2023-04-27T20:39:36.918Z,55.83
2023-04-27T20:42:03.938Z,55.31
2023-04-27T20:44:32.385Z,55.84
2023-04-27T20:46:59.380Z,56.96
2023-04-27T20:49:34.163Z,56.06
2023-04-27T20:52:01.885Z,54.73
2023-04-27T20:54:32.818Z,54.02
2023-04-27T20:57:03.112Z,53.73
2023-04-27T20:59:30.672Z,53.74
2023-04-27T21:01:57.714Z,54.11
2023-04-27T21:04:24.779Z,53.79
2023-04-27T21:06:52.969Z,53.61
2023-04-27T21:09:19.924Z,54.83
2023-04-27T21:11:47.007Z,55.53
2023-04-27T21:14:14.148Z,56.47
2023-04-27T21:16:41.539Z,56.75
2023-04-27T21:19:08.894Z,56.63
2023-04-27T21:21:36.172Z,56.87
2023-04-27T21:24:07.878Z,56.56
2023-04-27T21:26:35.466Z,58.08
2023-04-27T21:29:05.530Z,58.56
2023-04-27T21:31:33.519Z,56.55
2023-04-27T21:34:02.128Z,55.92
2023-04-27T21:36:29.220Z,54.96
2023-04-27T21:38:56.367Z,55.51
2023-04-27T21:41:23.368Z,55.54
2023-04-27T21:43:51.356Z,55.62
2023-04-27T21:46:18.438Z,55.21
2023-04-27T21:48:45.622Z,56.23
2023-04-27T21:51:12.612Z,56.25
2023-04-27T21:53:39.618Z,57.18
2023-04-27T21:56:06.941Z,56.54
2023-04-27T21:58:34.530Z,56.91
2023-04-27T22:01:01.492Z,57.43
2023-04-27T22:03:28.796Z,56.96
2023-04-27T22:05:57.673Z,57.39
2023-04-27T22:08:25.370Z,56.42
2023-04-27T22:10:52.513Z,55.01
2023-04-27T22:13:20.075Z,54.46
2023-04-27T22:15:47.954Z,54.26
2023-04-27T22:18:15.717Z,54.61
2023-04-27T22:20:43.053Z,55.00
2023-04-27T22:23:10.305Z,56.23
2023-04-27T22:25:37.601Z,55.89
2023-04-27T22:28:04.690Z,55.62
2023-04-27T22:30:31.774Z,55.91
2023-04-27T22:32:58.930Z,56.34
2023-04-27T22:35:27.705Z,57.51
2023-04-27T22:37:56.208Z,58.22
2023-04-27T22:40:23.331Z,56.83
2023-04-27T22:42:50.837Z,54.68
2023-04-27T22:45:17.825Z,52.04
2023-04-27T22:47:46.023Z,53.12
2023-04-27T22:50:13.834Z,52.62
2023-04-27T22:52:44.107Z,51.84
2023-04-27T22:55:11.627Z,51.53
2023-04-27T22:57:39.124Z,52.15
2023-04-27T23:00:09.023Z,53.13
2023-04-27T23:02:36.253Z,54.14
2023-04-27T23:05:03.961Z,54.68
2023-04-27T23:07:31.105Z,54.99
2023-04-27T23:10:00.968Z,54.35
2023-04-27T23:12:28.246Z,53.65
2023-04-27T23:14:55.548Z,53.77
2023-04-27T23:17:22.936Z,54.61
2023-04-27T23:19:50.299Z,54.51
2023-04-27T23:22:17.211Z,53.85
2023-04-27T23:24:44.205Z,54.19
2023-04-27T23:27:11.152Z,55.40
2023-04-27T23:29:39.026Z,55.60
2023-04-27T23:32:06.036Z,56.16
2023-04-27T23:34:33.417Z,56.42
2023-04-27T23:37:00.515Z,56.50
2023-04-27T23:39:30.703Z,56.34
2023-04-27T23:41:58.254Z,55.03
2023-04-27T23:44:25.304Z,53.58
2023-04-27T23:46:52.371Z,54.32
2023-04-27T23:49:19.343Z,54.17
2023-04-27T23:51:46.379Z,55.01
2023-04-27T23:54:13.527Z,55.23
2023-04-27T23:56:40.904Z,55.87
2023-04-27T23:59:08.210Z,56.16
